Time;durP1;ratioP1;P1;durP2;ratioP2;P2;SDS_P1;SDS_P2;PMS_P1;PMS_P2;Temp;Humidity;BMP_temperature;BMP_pressure;BME280_temperature;BME280_humidity;BME280_pressure;Samples;Min_cycle;Max_cycle;Signal;HPM_P1;HPM_P2
2022/05/05 00:01:10;;;;;;;14.30;10.88;;;;;;;8.89;100.00;97525.06;5046521;28;20045;-65
2022/05/05 00:03:38;;;;;;;14.23;10.75;;;;;;;8.94;100.00;97525.16;5046789;28;20114;-64
2022/05/05 00:06:05;;;;;;;14.57;10.23;;;;;;;9.10;100.00;97520.91;5047324;28;20083;-65
2022/05/05 00:08:32;;;;;;;13.02;10.10;;;;;;;9.19;100.00;97519.50;5058472;28;20045;-65
2022/05/05 00:16:28;;;;;;;12.57;9.45;;;;;;;9.31;98.06;97527.56;5044298;28;20408;-65
2022/05/05 00:18:55;;;;;;;13.05;9.48;;;;;;;9.27;98.49;97520.16;5046670;28;20045;-65
2022/05/05 00:21:22;;;;;;;14.65;10.27;;;;;;;9.28;99.16;97517.22;5042260;28;20052;-65
2022/05/05 00:23:48;;;;;;;11.90;8.93;;;;;;;9.23;98.68;97514.41;5042553;28;20439;-65
2022/05/05 00:26:15;;;;;;;13.25;9.07;;;;;;;9.30;98.50;97517.81;5045312;28;20029;-65
2022/05/05 00:28:42;;;;;;;13.38;9.68;;;;;;;9.35;97.97;97517.91;5047546;28;20098;-65
2022/05/05 00:31:08;;;;;;;12.10;9.07;;;;;;;9.42;96.86;97514.22;5045451;28;20041;-65
2022/05/05 00:33:35;;;;;;;12.50;9.32;;;;;;;9.39;96.66;97512.03;5046242;28;20059;-65
2022/05/05 00:36:02;;;;;;;12.52;9.68;;;;;;;9.10;97.16;97518.19;5046319;28;20415;-65
2022/05/05 00:38:29;;;;;;;11.93;8.75;;;;;;;8.90;98.70;97516.72;5045977;28;20131;-65
2022/05/05 00:40:55;;;;;;;13.60;10.40;;;;;;;8.88;100.00;97509.94;5046329;28;20523;-65
2022/05/05 00:43:22;;;;;;;13.55;9.75;;;;;;;8.73;99.83;97524.72;5045287;28;20045;-65
2022/05/05 00:45:49;;;;;;;13.93;10.68;;;;;;;8.51;100.00;97511.78;5044905;28;20367;-65
2022/05/05 00:48:17;;;;;;;13.60;9.90;;;;;;;8.42;100.00;97519.44;5046073;28;20215;-65
2022/05/05 00:50:43;;;;;;;14.02;10.45;;;;;;;8.40;100.00;97518.03;5042300;28;20036;-65
2022/05/05 00:53:10;;;;;;;15.57;12.23;;;;;;;8.47;100.00;97521.41;5044275;28;20051;-65
2022/05/05 00:55:39;;;;;;;17.23;11.90;;;;;;;8.54;100.00;97524.03;5045726;28;20099;-65
2022/05/05 00:58:05;;;;;;;16.60;11.85;;;;;;;8.57;100.00;97520.84;5046325;28;20462;-65
2022/05/05 01:00:33;;;;;;;15.57;11.48;;;;;;;8.66;100.00;97524.84;5040588;28;20539;-65
2022/05/05 01:03:00;;;;;;;16.58;11.60;;;;;;;8.89;100.00;97522.38;5041952;28;20533;-64
2022/05/05 01:05:30;;;;;;;15.18;11.45;;;;;;;8.89;100.00;97525.91;5043659;28;20128;-65
2022/05/05 01:07:57;;;;;;;15.15;10.80;;;;;;;8.87;98.94;97529.88;5061383;28;20045;-65
2022/05/05 01:10:25;;;;;;;14.05;10.57;;;;;;;8.30;99.92;97524.00;5045591;28;20500;-65
2022/05/05 01:12:52;;;;;;;14.15;11.18;;;;;;;8.23;100.00;97521.41;5045424;28;20104;-65
2022/05/05 01:15:20;;;;;;;14.35;11.10;;;;;;;8.18;100.00;97529.34;5045061;28;20068;-65
2022/05/05 01:17:47;;;;;;;15.30;11.50;;;;;;;8.11;100.00;97528.66;5046075;28;20055;-65
2022/05/05 01:20:16;;;;;;;15.40;11.60;;;;;;;8.08;100.00;97529.97;5046131;28;20480;-65
2022/05/05 01:22:43;;;;;;;16.05;11.85;;;;;;;8.20;100.00;97527.25;5032240;28;20519;-65
2022/05/05 01:28:14;;;;;;;18.42;12.07;;;;;;;8.51;100.00;97530.69;5042105;28;20057;-65
2022/05/05 01:30:45;;;;;;;17.00;11.70;;;;;;;8.57;100.00;97534.34;5044290;28;20045;-65
2022/05/05 01:33:17;;;;;;;16.08;11.35;;;;;;;8.70;100.00;97530.59;5045398;28;20040;-65
2022/05/05 01:35:46;;;;;;;16.92;11.60;;;;;;;8.60;99.38;97531.19;5044997;28;20411;-65
2022/05/05 01:38:15;;;;;;;13.60;10.50;;;;;;;8.27;100.00;97541.47;5044725;28;20134;-65
2022/05/05 01:40:46;;;;;;;15.30;10.70;;;;;;;8.33;100.00;97537.00;5044908;28;20053;-65
2022/05/05 01:43:14;;;;;;;18.48;11.85;;;;;;;8.52;100.00;97540.41;5043536;28;20041;-65
2022/05/05 01:45:41;;;;;;;14.52;11.00;;;;;;;8.69;100.00;97537.03;5044586;28;20104;-65
2022/05/05 01:48:08;;;;;;;13.70;10.70;;;;;;;8.59;99.67;97530.38;5045125;28;20072;-65
2022/05/05 01:50:36;;;;;;;15.95;10.75;;;;;;;8.63;99.62;97538.84;5037132;28;20045;-65
2022/05/05 01:53:04;;;;;;;13.02;9.93;;;;;;;8.53;99.44;97543.97;5044547;28;20044;-65
2022/05/05 01:55:31;;;;;;;12.63;9.85;;;;;;;8.49;100.00;97540.91;5044001;28;20041;-65
2022/05/05 01:58:00;;;;;;;13.25;9.75;;;;;;;8.34;99.84;97541.38;5044281;28;20044;-65
2022/05/05 02:00:27;;;;;;;15.15;10.45;;;;;;;8.27;100.00;97529.84;5043084;28;20041;-65
2022/05/05 02:02:55;;;;;;;15.02;10.45;;;;;;;8.16;100.00;97545.81;5044235;28;20424;-65
2022/05/05 02:05:21;;;;;;;14.95;10.23;;;;;;;8.07;100.00;97542.59;5044537;28;20048;-65
2022/05/05 02:07:48;;;;;;;15.43;10.85;;;;;;;8.13;100.00;97538.16;5059577;28;20098;-65
2022/05/05 02:10:16;;;;;;;17.60;11.85;;;;;;;8.04;100.00;97534.16;5061736;28;20162;-65
2022/05/05 02:12:44;;;;;;;14.05;10.38;;;;;;;8.05;100.00;97538.50;5043438;28;20048;-65
2022/05/05 02:15:12;;;;;;;14.35;10.40;;;;;;;8.16;100.00;97542.28;5042194;28;20071;-65
2022/05/05 02:17:41;;;;;;;18.42;10.77;;;;;;;8.31;100.00;97547.22;5044904;28;20044;-65
2022/05/05 02:20:11;;;;;;;15.40;9.98;;;;;;;8.39;99.35;97544.19;5043597;28;20057;-64
2022/05/05 02:22:39;;;;;;;13.57;9.63;;;;;;;8.42;98.90;97546.41;5024592;28;20050;-65
2022/05/05 02:25:06;;;;;;;11.68;8.77;;;;;;;8.48;98.17;97547.38;5040583;28;20056;-65
2022/05/05 02:27:50;;;;;;;13.13;8.93;;;;;;;8.46;97.64;97542.19;5044539;28;20037;-65
2022/05/05 02:30:22;;;;;;;12.30;9.40;;;;;;;8.38;98.12;97537.16;5044570;28;20144;-65
2022/05/05 02:32:48;;;;;;;;;;;;;;;8.29;98.63;97539.34;5044842;28;20096;-65
2022/05/05 02:35:15;;;;;;;13.68;9.68;;;;;;;8.30;98.62;97534.78;5044716;28;20358;-65
2022/05/05 02:40:28;;;;;;;12.75;9.02;;;;;;;8.13;99.13;97532.78;5043686;28;20472;-65
2022/05/05 02:42:56;;;;;;;12.05;8.85;;;;;;;8.17;99.31;97536.66;5043306;28;20041;-65
2022/05/05 02:45:23;;;;;;;12.15;8.98;;;;;;;8.14;99.44;97537.09;5043512;28;20041;-65
2022/05/05 02:47:50;;;;;;;12.82;8.82;;;;;;;8.23;99.27;97536.78;5044098;28;20041;-65
2022/05/05 02:50:18;;;;;;;12.20;9.68;;;;;;;8.19;99.30;97534.53;5042336;28;20052;-65
2022/05/05 02:52:45;;;;;;;14.82;9.55;;;;;;;8.18;99.45;97534.75;5043981;28;20053;-65
2022/05/05 02:55:12;;;;;;;14.35;9.90;;;;;;;8.19;99.84;97531.84;5044029;28;20360;-65
2022/05/05 02:57:38;;;;;;;15.25;10.35;;;;;;;8.17;99.43;97531.25;5039539;28;20091;-65
2022/05/05 03:00:10;;;;;;;12.98;9.65;;;;;;;8.26;98.96;97533.63;5042714;28;20566;-64
2022/05/05 03:02:39;;;;;;;13.48;10.07;;;;;;;8.28;99.27;97531.50;5043238;28;20453;-65
2022/05/05 03:05:05;;;;;;;12.43;9.05;;;;;;;8.30;99.82;97535.59;5043323;28;20099;-64
2022/05/05 03:07:32;;;;;;;14.30;10.43;;;;;;;8.38;98.79;97530.91;5050578;28;20052;-65
2022/05/05 03:09:59;;;;;;;12.30;9.38;;;;;;;8.39;98.43;97538.78;5042183;28;20041;-65
2022/05/05 03:12:25;;;;;;;12.65;9.98;;;;;;;8.35;98.80;97534.91;5043338;28;20455;-65
2022/05/05 03:14:53;;;;;;;14.00;9.00;;;;;;;8.37;98.77;97532.78;5042878;28;20046;-65
2022/05/05 03:17:20;;;;;;;14.50;10.25;;;;;;;8.46;98.42;97535.97;5042972;28;20049;-65
2022/05/05 03:19:47;;;;;;;11.43;8.65;;;;;;;8.54;98.11;97537.50;5043746;28;20045;-65
2022/05/05 03:22:13;;;;;;;13.00;9.45;;;;;;;8.49;98.03;97540.06;5037438;28;20037;-65
2022/05/05 03:24:40;;;;;;;12.02;9.27;;;;;;;8.49;98.30;97535.50;5047536;28;20044;-65
2022/05/05 03:27:07;;;;;;;11.90;9.35;;;;;;;8.36;98.78;97536.53;5046988;28;20037;-65
2022/05/05 03:29:33;;;;;;;13.80;9.45;;;;;;;8.40;98.67;97539.63;5046714;28;20067;-65
2022/05/05 03:32:00;;;;;;;13.98;9.05;;;;;;;8.43;99.15;97539.13;5046957;28;20044;-65
2022/05/05 03:34:26;;;;;;;13.73;9.88;;;;;;;8.50;98.55;97534.44;5047279;28;20629;-65
2022/05/05 03:36:53;;;;;;;12.80;9.50;;;;;;;8.53;98.36;97535.88;5045298;28;20056;-65
2022/05/05 03:39:19;;;;;;;11.00;8.60;;;;;;;8.56;98.00;97535.41;5047306;28;20045;-65
2022/05/05 03:41:46;;;;;;;14.77;9.85;;;;;;;8.62;98.59;97533.66;5045269;28;20041;-65
2022/05/05 03:44:12;;;;;;;12.40;9.48;;;;;;;8.64;98.87;97531.53;5046979;28;20044;-65
2022/05/05 03:46:39;;;;;;;13.05;9.80;;;;;;;8.64;98.48;97526.13;5047285;28;20041;-65
2022/05/05 03:49:05;;;;;;;14.68;9.38;;;;;;;8.69;98.54;97534.34;5047773;28;20446;-65
2022/05/05 03:51:32;;;;;;;11.95;8.90;;;;;;;8.68;97.80;97538.09;5046135;28;20094;-65
2022/05/05 03:53:59;;;;;;;17.35;9.35;;;;;;;8.63;98.38;97538.00;5045912;28;20128;-65
2022/05/05 03:56:25;;;;;;;11.77;8.85;;;;;;;8.57;98.37;97545.16;5046886;28;20048;-65
2022/05/05 03:58:52;;;;;;;11.35;8.43;;;;;;;8.54;98.62;97551.84;5046333;28;20044;-65
2022/05/05 04:01:19;;;;;;;13.63;9.77;;;;;;;8.55;98.60;97548.09;5046135;28;20486;-65
2022/05/05 04:03:45;;;;;;;11.95;8.95;;;;;;;8.52;98.66;97545.81;5047505;28;20652;-65
2022/05/05 04:06:13;;;;;;;12.55;9.57;;;;;;;8.47;98.58;97545.69;5043500;28;20498;-65
2022/05/05 04:08:39;;;;;;;12.90;9.43;;;;;;;8.54;98.63;97546.44;5045090;28;20059;-65
2022/05/05 04:11:07;;;;;;;15.00;10.43;;;;;;;8.41;98.87;97558.25;5042874;28;20045;-65
2022/05/05 04:13:34;;;;;;;13.93;10.00;;;;;;;8.34;99.24;97560.25;5039625;28;20416;-65
2022/05/05 04:16:06;;;;;;;14.20;10.00;;;;;;;8.29;99.36;97569.03;5031363;28;20060;-65
2022/05/05 04:18:33;;;;;;;16.67;11.18;;;;;;;8.35;99.49;97564.59;5043881;28;20344;-65
2022/05/05 04:21:00;;;;;;;16.27;11.80;;;;;;;8.35;99.10;97566.44;5042964;28;20170;-66
2022/05/05 04:23:27;;;;;;;14.95;11.02;;;;;;;8.32;99.22;97562.34;5043089;28;20060;-65
2022/05/05 04:26:11;;;;;;;15.65;10.68;;;;;;;8.36;98.88;97566.22;5043827;28;20133;-65
2022/05/05 04:28:40;;;;;;;14.82;11.32;;;;;;;8.36;98.70;97574.31;5042856;28;20045;-67
2022/05/05 04:31:10;;;;;;;16.15;10.88;;;;;;;8.34;99.14;97568.34;5034402;28;20041;-67
2022/05/05 04:33:38;;;;;;;14.57;10.52;;;;;;;8.44;98.68;97573.97;5043368;28;20044;-67
2022/05/05 04:36:06;;;;;;;15.90;11.25;;;;;;;8.51;98.90;97589.25;5045673;28;20048;-64
2022/05/05 04:38:33;;;;;;;14.23;9.88;;;;;;;8.59;98.46;97588.94;5046634;28;20041;-65
2022/05/05 04:41:00;;;;;;;16.15;10.60;;;;;;;8.63;98.37;97586.59;5046040;28;20528;-65
2022/05/05 04:43:27;;;;;;;14.10;10.23;;;;;;;8.69;98.09;97588.34;5044509;28;20056;-65
2022/05/05 04:45:54;;;;;;;15.52;10.30;;;;;;;8.72;97.75;97587.88;5046242;28;20436;-65
2022/05/05 04:48:20;;;;;;;16.27;10.68;;;;;;;8.77;97.83;97579.09;5046015;28;20040;-65
2022/05/05 04:50:47;;;;;;;17.35;10.98;;;;;;;8.84;97.90;97582.47;5041164;28;20070;-65
2022/05/05 04:53:14;;;;;;;12.77;9.68;;;;;;;8.92;97.84;97584.00;5046845;28;20071;-65
2022/05/05 04:55:40;;;;;;;13.30;10.25;;;;;;;9.09;98.01;97578.69;5043452;28;20049;-65
2022/05/05 04:58:07;;;;;;;14.73;9.73;;;;;;;9.23;97.07;97588.19;5042652;28;20531;-65
2022/05/05 05:00:35;;;;;;;13.15;9.30;;;;;;;9.30;96.50;97584.53;5042925;28;20500;-65
2022/05/05 05:03:02;;;;;;;13.65;9.88;;;;;;;9.42;96.23;97582.63;5043099;28;20037;-65
2022/05/05 05:05:29;;;;;;;11.60;9.13;;;;;;;9.43;96.74;97588.88;5043166;28;20048;-65
2022/05/05 05:07:56;;;;;;;12.32;8.90;;;;;;;9.59;96.88;97596.19;5047894;28;20037;-65
2022/05/05 05:10:22;;;;;;;12.43;9.07;;;;;;;9.71;96.01;97587.22;5043586;28;20045;-65
2022/05/05 05:12:49;;;;;;;13.95;8.77;;;;;;;9.87;95.21;97591.88;5044755;28;20053;-65
2022/05/05 05:15:16;;;;;;;9.90;7.82;;;;;;;10.00;92.70;97601.56;5046473;28;20119;-65
2022/05/05 05:17:42;;;;;;;10.80;8.25;;;;;;;10.13;92.24;97600.44;5043527;28;20674;-65
2022/05/05 05:20:09;;;;;;;13.48;8.10;;;;;;;10.21;90.80;97603.84;5041312;28;20095;-65
2022/05/05 05:22:36;;;;;;;9.77;7.47;;;;;;;10.28;89.71;97612.59;5042378;28;20068;-66
2022/05/05 05:25:03;;;;;;;10.60;7.47;;;;;;;10.36;88.79;97605.97;5042248;28;20480;-65
2022/05/05 05:27:30;;;;;;;9.27;6.53;;;;;;;10.34;88.82;97605.38;5042174;28;20393;-64
2022/05/05 05:29:56;;;;;;;9.55;6.80;;;;;;;10.36;89.33;97611.41;5041615;28;20063;-65
2022/05/05 05:32:23;;;;;;;7.80;6.00;;;;;;;10.50;88.46;97615.44;5042065;28;20048;-65
2022/05/05 05:34:49;;;;;;;8.65;6.30;;;;;;;10.61;87.51;97621.03;5042909;28;20048;-65
2022/05/05 05:37:16;;;;;;;9.52;6.20;;;;;;;10.76;85.95;97615.84;5044637;28;20045;-63
2022/05/05 05:39:43;;;;;;;9.70;6.88;;;;;;;10.88;85.38;97618.47;5039277;28;20052;-51
2022/05/05 05:42:09;;;;;;;9.68;5.80;;;;;;;10.92;84.51;97616.09;5039384;28;20516;-55
2022/05/05 05:44:36;;;;;;;7.75;5.60;;;;;;;11.18;83.13;97619.16;5041851;28;20063;-50
2022/05/05 05:47:03;;;;;;;8.52;5.28;;;;;;;11.48;83.58;97622.53;5040782;28;20037;-51
2022/05/05 05:49:30;;;;;;;7.93;5.25;;;;;;;11.81;81.23;97618.88;5041743;28;20049;-53
2022/05/05 05:51:56;;;;;;;7.00;4.85;;;;;;;12.04;80.35;97625.09;5032291;28;20535;-51
2022/05/05 05:54:23;;;;;;;7.93;5.25;;;;;;;12.10;79.85;97615.13;5037888;28;20049;-47
2022/05/05 05:56:49;;;;;;;6.43;4.72;;;;;;;12.09;79.74;97614.31;5042337;28;20804;-47
2022/05/05 05:59:16;;;;;;;7.15;5.03;;;;;;;11.82;79.67;97620.50;5041945;28;20114;-50
2022/05/05 06:04:27;;;;;;;7.32;4.97;;;;;;;12.06;79.69;97622.94;5044735;28;20805;-50
2022/05/05 06:06:54;;;;;;;8.88;4.82;;;;;;;12.48;77.47;97624.19;5047224;28;20032;-49
2022/05/05 06:09:20;;;;;;;9.68;5.50;;;;;;;12.49;77.53;97633.13;5041953;28;20056;-50
2022/05/05 06:11:48;;;;;;;9.38;5.43;;;;;;;12.43;77.83;97631.47;5041995;28;20045;-52
2022/05/05 06:14:14;;;;;;;8.13;4.95;;;;;;;12.44;77.84;97633.94;5044767;28;20044;-49
2022/05/05 06:16:41;;;;;;;7.43;5.03;;;;;;;12.14;78.87;97631.72;5046213;28;20069;-49
2022/05/05 06:19:07;;;;;;;7.00;4.63;;;;;;;11.74;80.67;97647.25;5041377;28;20056;-52
2022/05/05 06:21:34;;;;;;;8.10;5.38;;;;;;;11.56;80.75;97644.63;5040518;28;20094;-51
2022/05/05 06:24:01;;;;;;;7.45;4.93;;;;;;;11.77;80.64;97644.88;5042068;28;20041;-47
2022/05/05 06:26:27;;;;;;;8.98;5.15;;;;;;;11.79;79.52;97647.34;5041841;28;20397;-51
2022/05/05 06:28:55;;;;;;;7.25;5.18;;;;;;;11.92;80.11;97648.81;5041568;28;20032;-54
2022/05/05 06:31:23;;;;;;;8.75;5.93;;;;;;;11.98;79.27;97647.84;5041082;28;20041;-52
2022/05/05 06:33:50;;;;;;;9.63;5.80;;;;;;;11.99;80.53;97651.34;5040091;28;20040;-49
2022/05/05 06:36:17;;;;;;;8.65;5.50;;;;;;;11.81;80.67;97654.16;5041290;28;20048;-48
2022/05/05 06:38:43;;;;;;;8.02;5.82;;;;;;;11.80;81.76;97662.53;5042033;28;20052;-44
2022/05/05 06:41:13;;;;;;;10.43;5.70;;;;;;;11.88;80.75;97667.53;5035712;28;20033;-47
2022/05/05 06:43:40;;;;;;;9.70;4.97;;;;;;;11.92;80.03;97673.25;5040973;28;20516;-51
2022/05/05 06:46:07;;;;;;;9.32;5.85;;;;;;;11.84;81.08;97675.31;5044610;28;20041;-47
2022/05/05 06:48:34;;;;;;;9.27;5.95;;;;;;;11.85;81.20;97678.88;5041658;28;20037;-52
2022/05/05 06:51:00;;;;;;;7.43;5.50;;;;;;;11.99;80.41;97675.78;5039894;28;20041;-49
2022/05/05 06:53:27;;;;;;;8.85;6.68;;;;;;;11.97;81.09;97684.16;5040537;28;20045;-54
2022/05/05 06:55:57;;;;;;;9.75;6.32;;;;;;;12.01;80.88;97682.59;5040178;28;20056;-50
2022/05/05 06:58:24;;;;;;;6.82;4.47;;;;;;;12.32;80.03;97688.38;5056817;28;20041;-52
2022/05/05 07:03:35;;;;;;;14.63;6.90;;;;;;;12.36;79.40;97683.25;5039476;28;20049;-50
2022/05/05 07:06:02;;;;;;;8.23;6.03;;;;;;;12.40;79.58;97681.69;5044331;28;20815;-48
2022/05/05 07:10:52;;;;;;;9.73;6.68;;;;;;;12.43;80.08;97683.06;5045461;28;20053;-48
2022/05/05 07:11:16;;;;;;;9.93;6.30;;;;;;;12.30;80.30;97687.81;5042973;28;20037;-52
2022/05/05 07:13:43;;;;;;;8.85;6.38;;;;;;;12.29;81.04;97688.91;5044964;28;20045;-52
2022/05/05 07:16:09;;;;;;;9.95;7.18;;;;;;;12.45;80.93;97691.75;5044771;28;20063;-49
2022/05/05 07:18:36;;;;;;;9.55;7.20;;;;;;;12.61;80.53;97685.41;5041271;28;20696;-50
2022/05/05 07:21:03;;;;;;;11.75;6.75;;;;;;;12.88;79.82;97691.88;5046677;28;20045;-49
2022/05/05 07:23:30;;;;;;;12.82;8.48;;;;;;;12.51;80.00;97695.34;5047915;28;20056;-49
2022/05/05 07:25:56;;;;;;;8.65;6.60;;;;;;;12.54;80.67;97690.25;5047112;28;20044;-48
2022/05/05 07:28:23;;;;;;;9.57;7.43;;;;;;;12.96;80.11;97687.88;5047947;28;20480;-50
2022/05/05 07:30:51;;;;;;;10.10;8.07;;;;;;;12.99;79.84;97696.34;5040284;28;20052;-50
2022/05/05 07:33:19;;;;;;;11.57;7.90;;;;;;;13.26;79.71;97700.88;5044343;28;20136;-54
2022/05/05 07:35:47;;;;;;;10.13;8.18;;;;;;;13.60;79.08;97705.19;5041714;28;20045;-50
2022/05/05 07:38:14;;;;;;;10.95;8.63;;;;;;;13.11;79.01;97703.47;5044896;28;20037;-67
2022/05/05 07:40:46;;;;;;;10.70;8.48;;;;;;;13.10;80.26;97699.13;5042841;28;20059;-67
2022/05/05 07:43:13;;;;;;;13.52;9.25;;;;;;;13.19;78.96;97703.00;5044968;28;20095;-67
2022/05/05 07:45:39;;;;;;;14.48;9.38;;;;;;;13.61;79.05;97698.69;5048042;28;20040;-68
2022/05/05 07:48:06;;;;;;;13.63;9.63;;;;;;;13.31;79.16;97704.72;5045122;28;20040;-68
2022/05/05 07:50:33;;;;;;;11.65;8.77;;;;;;;13.70;76.83;97700.88;5044058;28;20299;-68
2022/05/05 07:53:00;;;;;;;12.20;9.73;;;;;;;13.19;79.74;97711.16;5044404;28;20520;-67
2022/05/05 07:55:26;;;;;;;12.88;9.90;;;;;;;12.79;79.88;97707.84;5053404;28;20036;-68
2022/05/05 07:57:53;;;;;;;13.57;10.13;;;;;;;13.12;78.86;97710.56;5048778;28;20040;-68
2022/05/05 08:00:21;;;;;;;21.23;10.45;;;;;;;13.60;78.36;97701.66;5044870;28;20091;-69
2022/05/05 08:02:47;;;;;;;20.40;10.05;;;;;;;13.59;76.84;97705.44;5044717;28;20912;-64
2022/05/05 08:05:14;;;;;;;13.40;10.27;;;;;;;13.90;76.47;97714.59;5042302;28;20044;-64
2022/05/05 08:07:45;;;;;;;14.18;9.85;;;;;;;13.77;76.83;97720.50;5048859;28;20037;-65
2022/05/05 08:10:12;;;;;;;14.07;9.98;;;;;;;14.13;76.36;97715.25;5042719;28;20041;-64
2022/05/05 08:12:40;;;;;;;12.63;10.05;;;;;;;14.36;74.66;97720.47;5048067;28;20647;-64
2022/05/05 08:15:08;;;;;;;13.98;10.55;;;;;;;13.94;75.05;97728.50;5046554;28;20040;-64
2022/05/05 08:17:34;;;;;;;14.63;9.77;;;;;;;14.29;73.90;97726.16;5043735;28;20067;-64
2022/05/05 08:20:03;;;;;;;15.65;10.52;;;;;;;13.78;74.55;97728.41;5043656;28;20459;-65
2022/05/05 08:22:30;;;;;;;15.65;10.55;;;;;;;13.51;75.63;97723.09;5042962;28;20049;-64
2022/05/05 08:30:27;;;;;;;12.60;10.43;;;;;;;13.57;75.69;97735.66;5044127;28;20078;-64
2022/05/05 08:32:54;;;;;;;16.38;10.98;;;;;;;13.61;75.83;97731.31;5044065;28;20052;-65
2022/05/05 08:35:22;;;;;;;14.57;11.25;;;;;;;13.84;74.89;97742.88;5042044;28;20710;-64
2022/05/05 08:37:52;;;;;;;13.73;10.07;;;;;;;14.05;73.00;97751.16;5041624;28;20045;-65
2022/05/05 08:40:25;;;;;;;12.65;10.38;;;;;;;13.30;75.78;97744.66;5044525;28;20068;-65
2022/05/05 08:42:52;;;;;;;18.08;11.90;;;;;;;13.18;77.09;97744.84;5043351;28;20049;-65
2022/05/05 08:45:20;;;;;;;18.35;11.98;;;;;;;13.30;76.75;97744.66;5043184;28;20080;-65
2022/05/05 08:47:47;;;;;;;15.68;12.82;;;;;;;13.38;76.04;97746.91;5041691;28;20102;-64
2022/05/05 08:50:15;;;;;;;15.23;11.82;;;;;;;13.55;74.53;97751.41;5043377;28;20669;-65
2022/05/05 08:52:48;;;;;;;14.57;11.75;;;;;;;13.33;75.50;97743.31;5045451;28;20044;-65
2022/05/05 08:55:17;;;;;;;17.30;12.00;;;;;;;13.39;75.53;97750.47;5041731;28;20124;-64
2022/05/05 08:57:44;;;;;;;16.95;13.52;;;;;;;13.30;76.40;97752.81;5049611;28;20041;-65
2022/05/05 09:00:13;;;;;;;18.15;13.68;;;;;;;13.11;75.96;97764.09;5043791;28;20051;-65
2022/05/05 09:02:44;;;;;;;16.02;13.23;;;;;;;13.03;76.54;97767.28;5040012;28;20056;-65
2022/05/05 09:05:11;;;;;;;17.90;14.67;;;;;;;13.19;75.88;97775.59;5054190;28;20131;-65
2022/05/05 09:07:49;;;;;;;18.23;14.02;;;;;;;13.43;75.63;97762.47;5051347;28;20063;-65
2022/05/05 09:10:17;;;;;;;17.23;12.63;;;;;;;13.39;75.16;97766.78;5040076;28;20415;-65
2022/05/05 09:12:58;;;;;;;16.23;12.85;;;;;;;13.58;74.47;97760.94;5040997;28;20049;-65
2022/05/05 09:15:30;;;;;;;16.47;12.80;;;;;;;13.63;75.80;97767.25;5040930;28;20041;-64
2022/05/05 09:18:33;;;;;;;15.95;13.23;;;;;;;13.80;74.46;97763.53;5042478;28;20295;-65
2022/05/05 09:21:04;;;;;;;19.75;12.10;;;;;;;13.39;73.90;97769.50;4999202;28;20573;-64
2022/05/05 09:23:31;;;;;;;15.02;11.30;;;;;;;13.65;72.88;97773.22;5033375;28;20049;-65
2022/05/05 09:25:59;;;;;;;18.52;11.75;;;;;;;14.03;71.47;97773.19;5042346;28;20037;-64
2022/05/05 09:28:28;;;;;;;17.42;11.13;;;;;;;13.87;70.25;97771.47;5043578;28;20086;-64
2022/05/05 09:30:55;;;;;;;15.70;11.02;;;;;;;13.42;73.20;97771.69;5042749;28;20045;-64
2022/05/05 09:33:34;;;;;;;15.93;11.23;;;;;;;13.60;72.54;97783.28;5043941;28;20029;-68
2022/05/05 09:36:02;;;;;;;18.27;12.52;;;;;;;13.03;74.28;97782.78;5032981;28;20480;-70
2022/05/05 09:38:55;;;;;;;18.73;12.98;;;;;;;12.79;77.09;97786.63;5034003;28;20511;-66
2022/05/05 09:41:23;;;;;;;15.77;13.13;;;;;;;12.77;75.68;97793.41;5040260;28;20051;-66
2022/05/05 09:43:49;;;;;;;15.27;12.57;;;;;;;12.69;76.66;97790.09;5044848;28;20049;-65
2022/05/05 09:46:22;;;;;;;18.85;13.38;;;;;;;12.80;76.58;97788.28;5035477;28;20554;-66
2022/05/05 09:48:50;;;;;;;17.00;12.52;;;;;;;12.85;76.90;97793.78;5046551;28;20500;-64
2022/05/05 09:51:18;;;;;;;16.73;12.35;;;;;;;12.57;77.58;97794.84;5044049;28;20041;-66
2022/05/05 09:59:29;;;;;;;21.80;14.52;;;;;;;13.25;74.51;97797.13;5040807;28;20056;-51
2022/05/05 10:02:07;;;;;;;19.60;13.70;;;;;;;13.00;73.47;97789.56;5041411;28;20057;-65
2022/05/05 10:04:39;;;;;;;18.60;13.13;;;;;;;13.20;72.24;97796.25;5042742;28;20566;-67
2022/05/05 10:07:07;;;;;;;18.70;14.23;;;;;;;13.11;72.87;97799.44;5041822;28;20045;-66
2022/05/05 10:09:35;;;;;;;17.65;12.18;;;;;;;13.06;72.41;97798.56;5037523;28;20037;-67
2022/05/05 10:12:02;;;;;;;18.27;13.05;;;;;;;13.10;72.95;97810.59;5039266;28;21451;-67
2022/05/05 10:14:29;;;;;;;19.23;13.63;;;;;;;12.91;73.47;97807.41;5038585;28;20053;-67
2022/05/05 10:16:56;;;;;;;17.25;12.38;;;;;;;12.75;73.92;97804.53;5037775;28;20405;-65
2022/05/05 10:19:22;;;;;;;18.52;13.32;;;;;;;12.83;74.42;97806.78;5044588;28;20052;-66
2022/05/05 10:21:59;;;;;;;17.98;13.20;;;;;;;12.84;74.91;97800.28;5044727;28;20492;-67
2022/05/05 10:24:31;;;;;;;19.48;12.65;;;;;;;12.87;76.08;97809.81;5044349;28;20045;-67
2022/05/05 10:26:59;;;;;;;;;;;;;;;12.83;76.17;97805.97;5044624;28;20045;-67
2022/05/05 10:29:32;;;;;;;19.45;14.85;;;;;;;12.93;75.97;97806.06;5044648;28;19925;-66
2022/05/05 10:32:12;;;;;;;24.63;16.75;;;;;;;12.56;77.58;97804.03;5043663;28;20045;-66
2022/05/05 10:34:41;;;;;;;24.65;18.48;;;;;;;12.25;79.05;97807.22;5045250;28;20606;-69
2022/05/05 10:37:15;;;;;;;22.33;17.75;;;;;;;12.20;79.69;97810.69;5048390;28;20047;-64
2022/05/05 10:39:46;;;;;;;22.98;17.42;;;;;;;12.37;80.14;97801.66;5047982;28;20068;-66
2022/05/05 10:42:39;;;;;;;25.25;18.55;;;;;;;12.46;80.69;97813.72;5048537;28;20049;-66
2022/05/05 10:45:12;;;;;;;29.88;18.50;;;;;;;12.22;80.87;97802.28;5041539;28;20048;-66
2022/05/05 10:48:13;;;;;;;26.35;18.30;;;;;;;12.51;80.43;97804.00;5029251;28;20128;-63
2022/05/05 10:50:50;;;;;;;24.90;17.55;;;;;;;12.64;77.21;97805.50;5032739;28;20033;-66
2022/05/05 10:53:27;;;;;;;23.80;16.70;;;;;;;12.78;77.30;97806.72;5047423;28;20051;-66
2022/05/05 10:55:53;;;;;;;32.45;19.48;;;;;;;12.81;78.13;97813.56;5048719;28;20514;-70
2022/05/05 10:59:03;;;;;;;27.65;19.80;;;;;;;12.77;78.63;97815.97;5048615;28;20060;-66
2022/05/05 11:01:42;;;;;;;26.52;19.20;;;;;;;12.67;78.48;97813.13;5035457;28;20048;-64
2022/05/05 11:04:12;;;;;;;26.13;18.52;;;;;;;12.86;77.31;97808.16;5045072;28;20711;-65
2022/05/05 11:06:40;;;;;;;29.07;19.60;;;;;;;12.78;77.84;97814.88;5049634;28;20080;-64
2022/05/05 11:09:06;;;;;;;29.02;19.92;;;;;;;12.59;78.67;97812.53;5048758;28;20049;-64
2022/05/05 11:11:41;;;;;;;27.88;19.55;;;;;;;12.92;76.94;97809.03;5051650;28;20057;-65
2022/05/05 11:23:08;;;;;;;28.27;19.00;;;;;;;12.85;78.51;97820.94;5046855;28;20561;-65
2022/05/05 11:25:41;;;;;;;29.45;18.33;;;;;;;13.04;77.13;97817.06;5054989;22;20436;-78
2022/05/05 11:28:08;;;;;;;26.27;18.15;;;;;;;12.87;76.52;97815.25;5058031;28;20040;-78
2022/05/05 11:30:35;;;;;;;30.90;18.27;;;;;;;12.70;79.40;97813.47;5057326;28;20049;-79
2022/05/05 11:33:03;;;;;;;26.38;18.95;;;;;;;13.17;76.83;97822.06;5051656;28;20466;-78
2022/05/05 11:36:00;;;;;;;26.85;17.55;;;;;;;13.22;76.27;97805.81;5035979;28;20055;-79
2022/05/05 11:38:28;;;;;;;;;;;;;;;13.18;77.34;97809.28;5066198;22;20040;-64
2022/05/05 11:41:04;;;;;;;26.42;19.73;;;;;;;13.20;77.53;97802.50;5023349;28;20366;-65
2022/05/05 11:46:17;;;;;;;30.00;20.02;;;;;;;13.27;77.78;97791.44;5011965;28;20040;-66
2022/05/05 11:48:52;;;;;;;33.47;20.80;;;;;;;13.49;77.56;97796.00;4997383;28;20069;-68
2022/05/05 11:51:23;;;;;;;28.98;20.75;;;;;;;13.19;77.60;97794.63;4988564;28;20046;-66
2022/05/05 11:54:17;;;;;;;32.50;20.42;;;;;;;13.65;75.98;97788.75;4988000;28;20448;-67
2022/05/05 11:56:46;;;;;;;27.98;18.70;;;;;;;14.02;75.21;97784.34;4995202;28;20050;-66
2022/05/05 12:02:06;;;;;;;26.52;19.33;;;;;;;13.86;74.23;97778.00;5001000;28;20168;-64
2022/05/05 12:04:37;;;;;;;31.98;19.42;;;;;;;13.89;75.04;97780.16;5002743;28;20052;-64
2022/05/05 12:07:06;;;;;;;28.90;20.98;;;;;;;13.55;77.90;97780.50;5006614;28;20123;-64
2022/05/05 12:09:34;;;;;;;32.05;22.23;;;;;;;13.27;80.78;97786.00;4995148;28;20100;-64
2022/05/05 12:12:14;;;;;;;30.40;21.23;;;;;;;13.99;77.92;97782.97;5005458;28;20046;-64
2022/05/05 12:14:42;;;;;;;30.35;18.70;;;;;;;14.38;73.45;97787.22;5006889;28;20049;-64
2022/05/05 12:17:12;;;;;;;24.75;18.42;;;;;;;14.87;72.59;97778.94;5014529;28;20046;-66